sensor_id;sensor_type;location;lat;lon;timestamp;temperature;humidity
17190;DHT22;8710;49.880;8.272;2022-08-19T00:00:32;21.80;97.10
17190;DHT22;8710;49.880;8.272;2022-08-19T00:02:59;21.80;97.00
17190;DHT22;8710;49.880;8.272;2022-08-19T00:05:26;21.80;97.20
17190;DHT22;8710;49.880;8.272;2022-08-19T00:07:53;21.80;97.00
17190;DHT22;8710;49.880;8.272;2022-08-19T00:10:21;21.80;97.20
17190;DHT22;8710;49.880;8.272;2022-08-19T00:12:49;21.70;97.50
17190;DHT22;8710;49.880;8.272;2022-08-19T00:15:18;21.70;97.50
17190;DHT22;8710;49.880;8.272;2022-08-19T00:17:45;21.70;97.40
17190;DHT22;8710;49.880;8.272;2022-08-19T00:20:14;21.70;97.70
17190;DHT22;8710;49.880;8.272;2022-08-19T00:22:43;21.80;97.40
17190;DHT22;8710;49.880;8.272;2022-08-19T00:25:11;21.70;97.30
17190;DHT22;8710;49.880;8.272;2022-08-19T00:27:40;21.80;97.40
17190;DHT22;8710;49.880;8.272;2022-08-19T00:30:08;21.80;97.30
17190;DHT22;8710;49.880;8.272;2022-08-19T00:32:36;21.80;97.30
17190;DHT22;8710;49.880;8.272;2022-08-19T00:35:03;21.80;97.60
17190;DHT22;8710;49.880;8.272;2022-08-19T00:37:30;21.80;97.60
17190;DHT22;8710;49.880;8.272;2022-08-19T00:39:58;21.80;97.20
17190;DHT22;8710;49.880;8.272;2022-08-19T00:42:25;21.80;97.30
17190;DHT22;8710;49.880;8.272;2022-08-19T00:44:55;21.70;97.50
17190;DHT22;8710;49.880;8.272;2022-08-19T00:47:23;21.70;97.40
17190;DHT22;8710;49.880;8.272;2022-08-19T00:49:53;21.70;97.60
17190;DHT22;8710;49.880;8.272;2022-08-19T00:52:22;21.70;97.70
17190;DHT22;8710;49.880;8.272;2022-08-19T00:54:51;21.70;97.70
17190;DHT22;8710;49.880;8.272;2022-08-19T00:57:22;21.70;97.80
17190;DHT22;8710;49.880;8.272;2022-08-19T00:59:52;21.60;97.80
17190;DHT22;8710;49.880;8.272;2022-08-19T01:02:22;21.60;97.80
17190;DHT22;8710;49.880;8.272;2022-08-19T01:04:49;21.60;98.00
17190;DHT22;8710;49.880;8.272;2022-08-19T01:07:16;21.60;98.20
17190;DHT22;8710;49.880;8.272;2022-08-19T01:09:44;21.60;98.00
17190;DHT22;8710;49.880;8.272;2022-08-19T01:12:11;21.60;98.30
17190;DHT22;8710;49.880;8.272;2022-08-19T01:14:39;21.60;98.00
17190;DHT22;8710;49.880;8.272;2022-08-19T01:17:07;21.60;98.10
17190;DHT22;8710;49.880;8.272;2022-08-19T01:19:37;21.60;98.10
17190;DHT22;8710;49.880;8.272;2022-08-19T01:22:08;21.60;98.10
17190;DHT22;8710;49.880;8.272;2022-08-19T01:24:40;21.60;98.10
17190;DHT22;8710;49.880;8.272;2022-08-19T01:27:07;21.60;98.10
17190;DHT22;8710;49.880;8.272;2022-08-19T01:29:37;21.60;98.10
17190;DHT22;8710;49.880;8.272;2022-08-19T01:32:05;21.60;98.40
17190;DHT22;8710;49.880;8.272;2022-08-19T01:34:32;21.60;98.00
17190;DHT22;8710;49.880;8.272;2022-08-19T01:37:01;21.60;98.10
17190;DHT22;8710;49.880;8.272;2022-08-19T01:39:33;21.60;98.00
17190;DHT22;8710;49.880;8.272;2022-08-19T01:42:02;21.60;98.00
17190;DHT22;8710;49.880;8.272;2022-08-19T01:44:30;21.60;98.20
17190;DHT22;8710;49.880;8.272;2022-08-19T01:46:57;21.50;98.20
17190;DHT22;8710;49.880;8.272;2022-08-19T01:49:25;21.50;98.40
17190;DHT22;8710;49.880;8.272;2022-08-19T01:51:53;21.40;98.40
17190;DHT22;8710;49.880;8.272;2022-08-19T01:54:22;21.40;98.80
17190;DHT22;8710;49.880;8.272;2022-08-19T01:56:50;21.40;98.80
17190;DHT22;8710;49.880;8.272;2022-08-19T01:59:21;21.40;99.10
17190;DHT22;8710;49.880;8.272;2022-08-19T02:01:49;21.40;98.90
17190;DHT22;8710;49.880;8.272;2022-08-19T02:04:16;21.40;99.20
17190;DHT22;8710;49.880;8.272;2022-08-19T02:06:43;21.40;99.20
17190;DHT22;8710;49.880;8.272;2022-08-19T02:09:09;21.40;98.90
17190;DHT22;8710;49.880;8.272;2022-08-19T02:11:37;21.30;99.00
17190;DHT22;8710;49.880;8.272;2022-08-19T02:14:06;21.30;99.00
17190;DHT22;8710;49.880;8.272;2022-08-19T02:16:36;21.30;99.00
17190;DHT22;8710;49.880;8.272;2022-08-19T02:19:04;21.30;99.20
17190;DHT22;8710;49.880;8.272;2022-08-19T02:21:31;21.30;99.20
17190;DHT22;8710;49.880;8.272;2022-08-19T02:23:58;21.20;99.40
17190;DHT22;8710;49.880;8.272;2022-08-19T02:26:26;21.20;99.40
17190;DHT22;8710;49.880;8.272;2022-08-19T02:28:53;21.20;99.40
17190;DHT22;8710;49.880;8.272;2022-08-19T02:31:22;21.20;99.50
17190;DHT22;8710;49.880;8.272;2022-08-19T02:33:50;21.20;99.60
17190;DHT22;8710;49.880;8.272;2022-08-19T02:36:18;21.20;99.90
17190;DHT22;8710;49.880;8.272;2022-08-19T02:38:45;21.20;99.80
17190;DHT22;8710;49.880;8.272;2022-08-19T02:41:14;21.10;99.60
17190;DHT22;8710;49.880;8.272;2022-08-19T02:43:42;21.10;99.90
17190;DHT22;8710;49.880;8.272;2022-08-19T02:46:16;21.10;99.90
17190;DHT22;8710;49.880;8.272;2022-08-19T02:48:47;21.10;99.90
17190;DHT22;8710;49.880;8.272;2022-08-19T02:51:19;21.10;99.80
17190;DHT22;8710;49.880;8.272;2022-08-19T02:53:46;21.10;99.90
17190;DHT22;8710;49.880;8.272;2022-08-19T02:56:13;21.10;99.90
17190;DHT22;8710;49.880;8.272;2022-08-19T02:58:41;21.10;99.90
17190;DHT22;8710;49.880;8.272;2022-08-19T03:01:09;21.10;99.90
17190;DHT22;8710;49.880;8.272;2022-08-19T03:03:36;21.10;99.90
17190;DHT22;8710;49.880;8.272;2022-08-19T03:06:06;21.10;99.90
17190;DHT22;8710;49.880;8.272;2022-08-19T03:08:34;21.10;99.90
17190;DHT22;8710;49.880;8.272;2022-08-19T03:11:02;21.10;99.80
17190;DHT22;8710;49.880;8.272;2022-08-19T03:13:29;21.20;99.90
17190;DHT22;8710;49.880;8.272;2022-08-19T03:15:56;21.20;99.80
17190;DHT22;8710;49.880;8.272;2022-08-19T03:18:23;21.20;99.70
17190;DHT22;8710;49.880;8.272;2022-08-19T03:20:52;21.20;99.90
17190;DHT22;8710;49.880;8.272;2022-08-19T03:23:20;21.20;99.90
17190;DHT22;8710;49.880;8.272;2022-08-19T03:25:50;21.10;99.80
17190;DHT22;8710;49.880;8.272;2022-08-19T03:28:17;21.20;99.90
17190;DHT22;8710;49.880;8.272;2022-08-19T03:30:55;21.10;99.90
17190;DHT22;8710;49.880;8.272;2022-08-19T03:33:23;21.10;99.90
17190;DHT22;8710;49.880;8.272;2022-08-19T03:36:00;21.10;99.90
17190;DHT22;8710;49.880;8.272;2022-08-19T03:38:28;21.10;99.90
17190;DHT22;8710;49.880;8.272;2022-08-19T03:40:56;21.10;99.90
17190;DHT22;8710;49.880;8.272;2022-08-19T03:43:23;21.00;99.90
17190;DHT22;8710;49.880;8.272;2022-08-19T03:45:59;21.10;99.90
17190;DHT22;8710;49.880;8.272;2022-08-19T03:48:26;21.10;99.90
17190;DHT22;8710;49.880;8.272;2022-08-19T03:50:53;21.00;99.90
17190;DHT22;8710;49.880;8.272;2022-08-19T03:53:20;21.00;99.90
17190;DHT22;8710;49.880;8.272;2022-08-19T03:55:47;21.00;99.90
17190;DHT22;8710;49.880;8.272;2022-08-19T03:58:15;21.00;99.90
17190;DHT22;8710;49.880;8.272;2022-08-19T04:00:42;20.80;99.90
17190;DHT22;8710;49.880;8.272;2022-08-19T04:03:09;20.80;99.90
17190;DHT22;8710;49.880;8.272;2022-08-19T04:05:36;20.80;99.90
17190;DHT22;8710;49.880;8.272;2022-08-19T04:08:04;20.70;99.90
17190;DHT22;8710;49.880;8.272;2022-08-19T04:10:31;20.60;99.90
17190;DHT22;8710;49.880;8.272;2022-08-19T04:12:58;20.50;99.90
17190;DHT22;8710;49.880;8.272;2022-08-19T04:15:26;20.50;99.90
17190;DHT22;8710;49.880;8.272;2022-08-19T04:17:54;20.40;99.90
17190;DHT22;8710;49.880;8.272;2022-08-19T04:20:21;20.30;99.90
17190;DHT22;8710;49.880;8.272;2022-08-19T04:22:48;20.30;99.90
17190;DHT22;8710;49.880;8.272;2022-08-19T04:25:15;20.30;99.90
17190;DHT22;8710;49.880;8.272;2022-08-19T04:27:41;20.30;99.90
17190;DHT22;8710;49.880;8.272;2022-08-19T04:30:12;20.20;99.90
17190;DHT22;8710;49.880;8.272;2022-08-19T04:32:41;20.20;99.90
17190;DHT22;8710;49.880;8.272;2022-08-19T04:35:09;20.10;99.90
17190;DHT22;8710;49.880;8.272;2022-08-19T04:37:36;20.10;99.90
17190;DHT22;8710;49.880;8.272;2022-08-19T04:40:05;20.10;99.90
17190;DHT22;8710;49.880;8.272;2022-08-19T04:42:50;20.10;99.90
17190;DHT22;8710;49.880;8.272;2022-08-19T04:47:45;20.10;99.90
17190;DHT22;8710;49.880;8.272;2022-08-19T04:52:39;20.10;99.90
17190;DHT22;8710;49.880;8.272;2022-08-19T04:55:08;20.10;99.90
17190;DHT22;8710;49.880;8.272;2022-08-19T04:57:36;20.20;99.90
17190;DHT22;8710;49.880;8.272;2022-08-19T05:00:06;20.30;99.90
17190;DHT22;8710;49.880;8.272;2022-08-19T05:02:33;20.30;99.90
17190;DHT22;8710;49.880;8.272;2022-08-19T05:05:02;20.40;99.90
17190;DHT22;8710;49.880;8.272;2022-08-19T05:07:29;20.50;99.90
17190;DHT22;8710;49.880;8.272;2022-08-19T05:09:56;20.60;99.90
17190;DHT22;8710;49.880;8.272;2022-08-19T05:12:23;20.70;99.90
17190;DHT22;8710;49.880;8.272;2022-08-19T05:14:50;20.80;99.90
17190;DHT22;8710;49.880;8.272;2022-08-19T05:17:17;20.80;99.90
17190;DHT22;8710;49.880;8.272;2022-08-19T05:19:44;20.90;99.90
17190;DHT22;8710;49.880;8.272;2022-08-19T05:22:30;21.00;99.90
17190;DHT22;8710;49.880;8.272;2022-08-19T05:25:03;21.20;99.90
17190;DHT22;8710;49.880;8.272;2022-08-19T05:27:31;21.30;99.90
17190;DHT22;8710;49.880;8.272;2022-08-19T05:29:58;21.50;99.90
17190;DHT22;8710;49.880;8.272;2022-08-19T05:32:25;21.50;99.90
17190;DHT22;8710;49.880;8.272;2022-08-19T05:34:52;21.50;99.90
17190;DHT22;8710;49.880;8.272;2022-08-19T05:37:20;21.50;99.90
17190;DHT22;8710;49.880;8.272;2022-08-19T05:39:49;21.60;99.90
17190;DHT22;8710;49.880;8.272;2022-08-19T05:42:16;21.70;99.90
17190;DHT22;8710;49.880;8.272;2022-08-19T05:44:45;21.70;99.90
17190;DHT22;8710;49.880;8.272;2022-08-19T05:47:15;21.70;99.90
17190;DHT22;8710;49.880;8.272;2022-08-19T05:49:42;21.80;99.90
17190;DHT22;8710;49.880;8.272;2022-08-19T05:52:12;21.80;99.90
17190;DHT22;8710;49.880;8.272;2022-08-19T05:54:41;21.80;99.90
17190;DHT22;8710;49.880;8.272;2022-08-19T05:57:10;21.90;99.90
17190;DHT22;8710;49.880;8.272;2022-08-19T05:59:37;22.00;99.90
17190;DHT22;8710;49.880;8.272;2022-08-19T06:02:04;22.00;99.90
17190;DHT22;8710;49.880;8.272;2022-08-19T06:04:32;22.10;99.90
17190;DHT22;8710;49.880;8.272;2022-08-19T06:09:27;22.20;99.70
17190;DHT22;8710;49.880;8.272;2022-08-19T06:11:56;22.20;99.40
17190;DHT22;8710;49.880;8.272;2022-08-19T06:14:28;22.20;99.50
17190;DHT22;8710;49.880;8.272;2022-08-19T06:16:56;22.20;99.60
17190;DHT22;8710;49.880;8.272;2022-08-19T06:19:23;22.10;99.60
17190;DHT22;8710;49.880;8.272;2022-08-19T06:21:52;21.90;99.70
17190;DHT22;8710;49.880;8.272;2022-08-19T06:24:22;22.00;99.90
17190;DHT22;8710;49.880;8.272;2022-08-19T06:26:51;22.00;99.90
17190;DHT22;8710;49.880;8.272;2022-08-19T06:29:21;22.00;99.90
17190;DHT22;8710;49.880;8.272;2022-08-19T06:31:51;22.10;99.80
17190;DHT22;8710;49.880;8.272;2022-08-19T06:34:19;22.30;99.80
17190;DHT22;8710;49.880;8.272;2022-08-19T06:36:48;22.40;99.60
17190;DHT22;8710;49.880;8.272;2022-08-19T06:39:17;22.50;99.10
17190;DHT22;8710;49.880;8.272;2022-08-19T06:41:46;22.60;98.80
17190;DHT22;8710;49.880;8.272;2022-08-19T06:44:14;22.70;98.60
17190;DHT22;8710;49.880;8.272;2022-08-19T06:46:41;22.70;98.60
17190;DHT22;8710;49.880;8.272;2022-08-19T06:49:10;22.90;98.80
17190;DHT22;8710;49.880;8.272;2022-08-19T06:51:40;23.00;97.90
17190;DHT22;8710;49.880;8.272;2022-08-19T06:54:07;23.10;98.00
17190;DHT22;8710;49.880;8.272;2022-08-19T06:56:34;23.30;97.80
17190;DHT22;8710;49.880;8.272;2022-08-19T06:59:02;23.40;97.40
17190;DHT22;8710;49.880;8.272;2022-08-19T07:01:31;23.60;97.00
17190;DHT22;8710;49.880;8.272;2022-08-19T07:04:00;24.10;96.80
17190;DHT22;8710;49.880;8.272;2022-08-19T07:06:29;24.70;96.00
17190;DHT22;8710;49.880;8.272;2022-08-19T07:08:57;25.30;94.60
17190;DHT22;8710;49.880;8.272;2022-08-19T07:11:24;25.90;94.20
17190;DHT22;8710;49.880;8.272;2022-08-19T07:13:51;26.30;92.90
17190;DHT22;8710;49.880;8.272;2022-08-19T07:16:19;26.50;91.30
17190;DHT22;8710;49.880;8.272;2022-08-19T07:18:46;26.90;91.30
17190;DHT22;8710;49.880;8.272;2022-08-19T07:21:16;27.10;90.40
17190;DHT22;8710;49.880;8.272;2022-08-19T07:23:45;27.00;90.40
17190;DHT22;8710;49.880;8.272;2022-08-19T07:26:15;27.00;90.20
17190;DHT22;8710;49.880;8.272;2022-08-19T07:28:43;27.00;90.30
17190;DHT22;8710;49.880;8.272;2022-08-19T07:31:11;27.40;90.20
17190;DHT22;8710;49.880;8.272;2022-08-19T07:33:39;27.70;88.90
17190;DHT22;8710;49.880;8.272;2022-08-19T07:36:08;28.30;89.20
17190;DHT22;8710;49.880;8.272;2022-08-19T07:38:35;29.30;83.30
17190;DHT22;8710;49.880;8.272;2022-08-19T07:41:04;29.80;80.70
17190;DHT22;8710;49.880;8.272;2022-08-19T07:43:31;30.30;79.10
17190;DHT22;8710;49.880;8.272;2022-08-19T07:45:58;30.40;79.10
17190;DHT22;8710;49.880;8.272;2022-08-19T07:48:26;30.70;76.70
17190;DHT22;8710;49.880;8.272;2022-08-19T07:50:54;30.70;77.30
17190;DHT22;8710;49.880;8.272;2022-08-19T07:53:22;30.90;76.70
17190;DHT22;8710;49.880;8.272;2022-08-19T07:55:50;31.20;75.30
17190;DHT22;8710;49.880;8.272;2022-08-19T07:58:21;31.20;75.50
17190;DHT22;8710;49.880;8.272;2022-08-19T08:00:49;31.50;75.00
17190;DHT22;8710;49.880;8.272;2022-08-19T08:03:19;31.90;73.50
17190;DHT22;8710;49.880;8.272;2022-08-19T08:05:47;32.20;71.00
17190;DHT22;8710;49.880;8.272;2022-08-19T08:08:31;32.10;70.50
17190;DHT22;8710;49.880;8.272;2022-08-19T08:11:19;32.00;69.50
17190;DHT22;8710;49.880;8.272;2022-08-19T08:13:48;32.70;68.80
17190;DHT22;8710;49.880;8.272;2022-08-19T08:16:15;32.30;66.60
17190;DHT22;8710;49.880;8.272;2022-08-19T08:18:42;32.40;67.90
17190;DHT22;8710;49.880;8.272;2022-08-19T08:21:10;32.80;67.50
17190;DHT22;8710;49.880;8.272;2022-08-19T08:23:37;32.50;66.60
17190;DHT22;8710;49.880;8.272;2022-08-19T08:26:04;32.40;67.00
17190;DHT22;8710;49.880;8.272;2022-08-19T08:28:31;32.40;66.90
17190;DHT22;8710;49.880;8.272;2022-08-19T08:30:59;32.90;65.10
17190;DHT22;8710;49.880;8.272;2022-08-19T08:33:28;32.90;65.90
17190;DHT22;8710;49.880;8.272;2022-08-19T08:35:56;34.20;59.10
17190;DHT22;8710;49.880;8.272;2022-08-19T08:38:23;34.20;59.70
17190;DHT22;8710;49.880;8.272;2022-08-19T08:40:53;34.30;59.80
17190;DHT22;8710;49.880;8.272;2022-08-19T08:43:25;34.40;57.20
17190;DHT22;8710;49.880;8.272;2022-08-19T08:45:59;34.10;56.20
17190;DHT22;8710;49.880;8.272;2022-08-19T08:48:35;33.40;58.00
17190;DHT22;8710;49.880;8.272;2022-08-19T08:51:05;32.80;59.30
17190;DHT22;8710;49.880;8.272;2022-08-19T08:53:34;31.80;61.20
17190;DHT22;8710;49.880;8.272;2022-08-19T08:56:04;31.10;65.10
17190;DHT22;8710;49.880;8.272;2022-08-19T08:58:45;31.00;68.00
17190;DHT22;8710;49.880;8.272;2022-08-19T09:01:14;31.20;67.00
17190;DHT22;8710;49.880;8.272;2022-08-19T09:03:43;31.50;67.20
17190;DHT22;8710;49.880;8.272;2022-08-19T09:06:14;31.10;66.50
17190;DHT22;8710;49.880;8.272;2022-08-19T09:08:53;31.20;68.30
17190;DHT22;8710;49.880;8.272;2022-08-19T09:11:29;32.30;65.80
17190;DHT22;8710;49.880;8.272;2022-08-19T09:14:08;33.60;60.80
17190;DHT22;8710;49.880;8.272;2022-08-19T09:16:37;35.20;57.80
17190;DHT22;8710;49.880;8.272;2022-08-19T09:19:08;36.60;50.80
17190;DHT22;8710;49.880;8.272;2022-08-19T09:21:36;37.10;50.70
17190;DHT22;8710;49.880;8.272;2022-08-19T09:24:04;37.40;50.90
17190;DHT22;8710;49.880;8.272;2022-08-19T09:26:32;38.50;46.00
17190;DHT22;8710;49.880;8.272;2022-08-19T09:28:59;39.30;42.50
17190;DHT22;8710;49.880;8.272;2022-08-19T09:31:28;38.70;42.50
17190;DHT22;8710;49.880;8.272;2022-08-19T09:33:56;38.20;42.40
17190;DHT22;8710;49.880;8.272;2022-08-19T09:36:26;38.20;43.00
17190;DHT22;8710;49.880;8.272;2022-08-19T09:38:54;37.20;43.00
17190;DHT22;8710;49.880;8.272;2022-08-19T09:41:24;35.90;47.80
17190;DHT22;8710;49.880;8.272;2022-08-19T09:43:53;36.60;47.80
17190;DHT22;8710;49.880;8.272;2022-08-19T09:46:21;37.30;45.80
17190;DHT22;8710;49.880;8.272;2022-08-19T09:48:49;38.20;42.40
17190;DHT22;8710;49.880;8.272;2022-08-19T09:51:19;39.50;39.60
17190;DHT22;8710;49.880;8.272;2022-08-19T09:53:48;40.60;37.60
17190;DHT22;8710;49.880;8.272;2022-08-19T09:56:18;41.50;35.40
17190;DHT22;8710;49.880;8.272;2022-08-19T09:58:45;41.50;33.80
17190;DHT22;8710;49.880;8.272;2022-08-19T10:01:16;42.70;33.10
17190;DHT22;8710;49.880;8.272;2022-08-19T10:03:44;43.30;30.30
17190;DHT22;8710;49.880;8.272;2022-08-19T10:08:40;41.10;32.20
17190;DHT22;8710;49.880;8.272;2022-08-19T10:11:09;41.40;33.10
17190;DHT22;8710;49.880;8.272;2022-08-19T10:16:06;42.90;29.80
17190;DHT22;8710;49.880;8.272;2022-08-19T10:18:34;43.10;29.00
17190;DHT22;8710;49.880;8.272;2022-08-19T10:21:06;43.00;29.10
17190;DHT22;8710;49.880;8.272;2022-08-19T10:23:37;42.90;28.50
17190;DHT22;8710;49.880;8.272;2022-08-19T10:26:06;43.30;29.40
17190;DHT22;8710;49.880;8.272;2022-08-19T10:28:35;43.90;27.10
17190;DHT22;8710;49.880;8.272;2022-08-19T10:31:04;44.10;26.40
17190;DHT22;8710;49.880;8.272;2022-08-19T10:33:32;44.50;26.60
17190;DHT22;8710;49.880;8.272;2022-08-19T10:36:00;45.20;26.20
17190;DHT22;8710;49.880;8.272;2022-08-19T10:38:27;45.60;25.30
17190;DHT22;8710;49.880;8.272;2022-08-19T10:40:55;45.80;24.50
17190;DHT22;8710;49.880;8.272;2022-08-19T10:43:22;45.60;24.10
17190;DHT22;8710;49.880;8.272;2022-08-19T10:45:53;45.30;23.80
17190;DHT22;8710;49.880;8.272;2022-08-19T10:48:22;45.60;24.70
17190;DHT22;8710;49.880;8.272;2022-08-19T10:50:49;45.90;24.00
17190;DHT22;8710;49.880;8.272;2022-08-19T10:53:33;44.60;24.60
17190;DHT22;8710;49.880;8.272;2022-08-19T10:56:00;44.40;25.50
17190;DHT22;8710;49.880;8.272;2022-08-19T10:58:45;45.20;25.00
17190;DHT22;8710;49.880;8.272;2022-08-19T11:01:13;44.70;24.60
17190;DHT22;8710;49.880;8.272;2022-08-19T11:03:40;42.50;25.60
17190;DHT22;8710;49.880;8.272;2022-08-19T11:06:08;41.00;27.40
17190;DHT22;8710;49.880;8.272;2022-08-19T11:08:36;40.00;28.80
17190;DHT22;8710;49.880;8.272;2022-08-19T11:11:05;38.70;30.20
17190;DHT22;8710;49.880;8.272;2022-08-19T11:13:35;38.00;32.70
17190;DHT22;8710;49.880;8.272;2022-08-19T11:16:05;37.80;32.50
17190;DHT22;8710;49.880;8.272;2022-08-19T11:18:35;37.20;33.10
17190;DHT22;8710;49.880;8.272;2022-08-19T11:21:08;36.70;34.80
17190;DHT22;8710;49.880;8.272;2022-08-19T11:28:30;39.70;29.80
17190;DHT22;8710;49.880;8.272;2022-08-19T11:35:53;42.60;24.80
17190;DHT22;8710;49.880;8.272;2022-08-19T11:38:20;43.10;23.80
17190;DHT22;8710;49.880;8.272;2022-08-19T11:40:55;43.50;23.00
17190;DHT22;8710;49.880;8.272;2022-08-19T11:43:21;44.10;22.30
17190;DHT22;8710;49.880;8.272;2022-08-19T11:48:15;44.00;22.20
17190;DHT22;8710;49.880;8.272;2022-08-19T11:53:15;44.20;22.30
17190;DHT22;8710;49.880;8.272;2022-08-19T11:55:44;44.40;22.40
17190;DHT22;8710;49.880;8.272;2022-08-19T11:58:11;43.70;22.00
17190;DHT22;8710;49.880;8.272;2022-08-19T12:00:38;42.50;21.90
17190;DHT22;8710;49.880;8.272;2022-08-19T12:05:33;41.50;22.60
17190;DHT22;8710;49.880;8.272;2022-08-19T12:08:00;42.50;22.90
17190;DHT22;8710;49.880;8.272;2022-08-19T12:10:28;42.60;22.70
17190;DHT22;8710;49.880;8.272;2022-08-19T12:12:55;43.00;22.70
17190;DHT22;8710;49.880;8.272;2022-08-19T12:25:14;43.90;22.50
17190;DHT22;8710;49.880;8.272;2022-08-19T12:27:42;44.60;22.20
17190;DHT22;8710;49.880;8.272;2022-08-19T12:30:12;43.80;21.80
17190;DHT22;8710;49.880;8.272;2022-08-19T12:32:39;42.60;22.70
17190;DHT22;8710;49.880;8.272;2022-08-19T12:35:07;42.50;23.10
17190;DHT22;8710;49.880;8.272;2022-08-19T12:37:34;42.70;23.30
17190;DHT22;8710;49.880;8.272;2022-08-19T12:40:02;42.70;22.60
17190;DHT22;8710;49.880;8.272;2022-08-19T12:42:29;42.10;22.60
17190;DHT22;8710;49.880;8.272;2022-08-19T12:44:58;43.40;23.30
17190;DHT22;8710;49.880;8.272;2022-08-19T12:47:24;44.10;22.80
17190;DHT22;8710;49.880;8.272;2022-08-19T12:49:52;43.70;22.30
17190;DHT22;8710;49.880;8.272;2022-08-19T12:52:20;44.00;21.10
17190;DHT22;8710;49.880;8.272;2022-08-19T12:54:47;43.90;21.80
17190;DHT22;8710;49.880;8.272;2022-08-19T12:59:41;44.70;20.30
17190;DHT22;8710;49.880;8.272;2022-08-19T13:02:09;45.40;19.60
17190;DHT22;8710;49.880;8.272;2022-08-19T13:07:06;45.50;20.50
17190;DHT22;8710;49.880;8.272;2022-08-19T13:12:02;45.40;19.70
17190;DHT22;8710;49.880;8.272;2022-08-19T13:17:00;45.80;18.80
17190;DHT22;8710;49.880;8.272;2022-08-19T13:19:28;45.20;19.50
17190;DHT22;8710;49.880;8.272;2022-08-19T13:21:56;43.40;19.70
17190;DHT22;8710;49.880;8.272;2022-08-19T13:24:24;42.00;20.80
17190;DHT22;8710;49.880;8.272;2022-08-19T13:26:51;41.40;21.80
17190;DHT22;8710;49.880;8.272;2022-08-19T13:29:18;41.70;21.50
17190;DHT22;8710;49.880;8.272;2022-08-19T13:32:02;42.10;21.30
17190;DHT22;8710;49.880;8.272;2022-08-19T13:34:48;43.00;20.40
17190;DHT22;8710;49.880;8.272;2022-08-19T13:37:15;42.40;20.00
17190;DHT22;8710;49.880;8.272;2022-08-19T13:40:02;42.20;21.30
17190;DHT22;8710;49.880;8.272;2022-08-19T13:42:29;42.70;20.50
17190;DHT22;8710;49.880;8.272;2022-08-19T13:44:57;43.20;19.70
17190;DHT22;8710;49.880;8.272;2022-08-19T13:47:23;43.00;19.10
17190;DHT22;8710;49.880;8.272;2022-08-19T13:49:52;42.80;20.00
17190;DHT22;8710;49.880;8.272;2022-08-19T13:52:19;42.80;20.80
17190;DHT22;8710;49.880;8.272;2022-08-19T14:07:05;42.50;19.20
17190;DHT22;8710;49.880;8.272;2022-08-19T14:09:32;42.90;19.10
17190;DHT22;8710;49.880;8.272;2022-08-19T14:11:58;42.10;19.50
17190;DHT22;8710;49.880;8.272;2022-08-19T14:14:25;41.70;20.20
17190;DHT22;8710;49.880;8.272;2022-08-19T14:19:20;42.00;20.50
17190;DHT22;8710;49.880;8.272;2022-08-19T14:24:15;42.10;19.70
17190;DHT22;8710;49.880;8.272;2022-08-19T14:26:42;42.30;19.60
17190;DHT22;8710;49.880;8.272;2022-08-19T14:31:36;42.00;20.00
17190;DHT22;8710;49.880;8.272;2022-08-19T14:36:32;42.20;19.20
17190;DHT22;8710;49.880;8.272;2022-08-19T14:39:00;41.90;19.50
17190;DHT22;8710;49.880;8.272;2022-08-19T14:41:28;41.70;20.10
17190;DHT22;8710;49.880;8.272;2022-08-19T14:43:56;41.30;20.20
17190;DHT22;8710;49.880;8.272;2022-08-19T14:46:26;41.10;20.10
17190;DHT22;8710;49.880;8.272;2022-08-19T14:48:54;40.60;20.70
17190;DHT22;8710;49.880;8.272;2022-08-19T14:51:22;40.50;20.90
17190;DHT22;8710;49.880;8.272;2022-08-19T14:53:50;39.60;22.00
17190;DHT22;8710;49.880;8.272;2022-08-19T14:56:20;38.60;23.10
17190;DHT22;8710;49.880;8.272;2022-08-19T14:58:48;38.00;24.70
17190;DHT22;8710;49.880;8.272;2022-08-19T15:01:17;37.90;25.20
17190;DHT22;8710;49.880;8.272;2022-08-19T15:03:46;38.00;25.10
17190;DHT22;8710;49.880;8.272;2022-08-19T15:06:13;37.90;25.40
17190;DHT22;8710;49.880;8.272;2022-08-19T15:08:42;37.20;25.30
17190;DHT22;8710;49.880;8.272;2022-08-19T15:11:11;36.60;26.90
17190;DHT22;8710;49.880;8.272;2022-08-19T15:13:40;36.30;28.00
17190;DHT22;8710;49.880;8.272;2022-08-19T15:16:09;35.80;28.20
17190;DHT22;8710;49.880;8.272;2022-08-19T15:18:36;35.40;29.30
17190;DHT22;8710;49.880;8.272;2022-08-19T15:21:04;35.00;30.10
17190;DHT22;8710;49.880;8.272;2022-08-19T15:25:58;34.60;31.10
17190;DHT22;8710;49.880;8.272;2022-08-19T15:28:25;34.50;31.70
17190;DHT22;8710;49.880;8.272;2022-08-19T15:30:52;34.30;32.40
17190;DHT22;8710;49.880;8.272;2022-08-19T15:33:21;34.10;32.90
17190;DHT22;8710;49.880;8.272;2022-08-19T15:35:48;33.90;33.60
17190;DHT22;8710;49.880;8.272;2022-08-19T15:38:16;33.60;34.00
17190;DHT22;8710;49.880;8.272;2022-08-19T15:40:47;33.30;36.10
17190;DHT22;8710;49.880;8.272;2022-08-19T15:43:14;33.20;36.80
17190;DHT22;8710;49.880;8.272;2022-08-19T15:45:41;33.10;37.10
17190;DHT22;8710;49.880;8.272;2022-08-19T15:48:09;32.90;37.50
17190;DHT22;8710;49.880;8.272;2022-08-19T15:50:38;32.90;37.80
17190;DHT22;8710;49.880;8.272;2022-08-19T15:53:08;32.80;38.80
17190;DHT22;8710;49.880;8.272;2022-08-19T15:55:40;32.70;39.30
17190;DHT22;8710;49.880;8.272;2022-08-19T15:58:09;32.80;39.70
17190;DHT22;8710;49.880;8.272;2022-08-19T16:00:54;32.80;39.20
17190;DHT22;8710;49.880;8.272;2022-08-19T16:03:35;32.60;38.60
17190;DHT22;8710;49.880;8.272;2022-08-19T16:06:20;32.50;39.40
17190;DHT22;8710;49.880;8.272;2022-08-19T16:08:54;32.30;39.80
17190;DHT22;8710;49.880;8.272;2022-08-19T16:11:23;32.30;40.40
17190;DHT22;8710;49.880;8.272;2022-08-19T16:13:52;32.40;39.10
17190;DHT22;8710;49.880;8.272;2022-08-19T16:16:21;32.40;39.40
17190;DHT22;8710;49.880;8.272;2022-08-19T16:18:49;32.30;40.50
17190;DHT22;8710;49.880;8.272;2022-08-19T16:21:18;32.20;40.50
17190;DHT22;8710;49.880;8.272;2022-08-19T16:23:48;32.10;41.70
17190;DHT22;8710;49.880;8.272;2022-08-19T16:26:17;31.90;41.80
17190;DHT22;8710;49.880;8.272;2022-08-19T16:28:45;31.80;42.60
17190;DHT22;8710;49.880;8.272;2022-08-19T16:31:14;31.70;43.50
17190;DHT22;8710;49.880;8.272;2022-08-19T16:33:41;31.60;43.60
17190;DHT22;8710;49.880;8.272;2022-08-19T16:36:08;31.50;44.30
17190;DHT22;8710;49.880;8.272;2022-08-19T16:38:35;31.40;45.40
17190;DHT22;8710;49.880;8.272;2022-08-19T16:41:05;31.30;45.30
17190;DHT22;8710;49.880;8.272;2022-08-19T16:43:32;31.00;45.10
17190;DHT22;8710;49.880;8.272;2022-08-19T16:45:59;30.90;45.80
17190;DHT22;8710;49.880;8.272;2022-08-19T16:48:29;30.80;45.90
17190;DHT22;8710;49.880;8.272;2022-08-19T16:50:57;30.80;45.70
17190;DHT22;8710;49.880;8.272;2022-08-19T16:53:26;30.70;46.00
17190;DHT22;8710;49.880;8.272;2022-08-19T16:55:53;30.60;46.30
17190;DHT22;8710;49.880;8.272;2022-08-19T16:58:22;30.60;46.50
17190;DHT22;8710;49.880;8.272;2022-08-19T17:00:50;30.30;46.90
17190;DHT22;8710;49.880;8.272;2022-08-19T17:03:19;30.20;48.00
17190;DHT22;8710;49.880;8.272;2022-08-19T17:05:49;30.20;48.70
17190;DHT22;8710;49.880;8.272;2022-08-19T17:08:17;30.10;48.40